createdAt,value
2019-03-29T00:01:05.492Z,102872.11
2019-03-29T00:03:36.296Z,102868.17
2019-03-29T00:06:07.133Z,102874.48
2019-03-29T00:08:37.544Z,102880.30
2019-03-29T00:11:08.043Z,102884.33
2019-03-29T00:13:38.497Z,102882.45
2019-03-29T00:16:08.941Z,102880.89
2019-03-29T00:18:39.460Z,102887.42
2019-03-29T00:21:09.945Z,102886.77
2019-03-29T00:23:42.492Z,102891.27
2019-03-29T00:26:13.018Z,102886.12
2019-03-29T00:28:43.583Z,102888.30
2019-03-29T00:31:14.191Z,102881.45
2019-03-29T00:33:44.565Z,102879.95
2019-03-29T00:36:15.194Z,102884.00
2019-03-29T00:38:45.920Z,102880.97
2019-03-29T00:41:16.681Z,102880.52
2019-03-29T00:43:47.296Z,102879.45
2019-03-29T00:46:18.191Z,102874.30
2019-03-29T00:48:48.744Z,102868.01
2019-03-29T00:51:19.515Z,102865.64
2019-03-29T00:53:51.232Z,102868.67
2019-03-29T00:56:21.707Z,102865.48
2019-03-29T00:58:53.747Z,102865.03
2019-03-29T01:01:26.051Z,102863.97
2019-03-29T01:03:57.796Z,102862.86
2019-03-29T01:06:29.960Z,102856.03
2019-03-29T01:09:00.811Z,102854.55
2019-03-29T01:11:33.509Z,102853.39
2019-03-29T01:14:04.333Z,102847.83
2019-03-29T01:16:36.052Z,102848.28
2019-03-29T01:19:06.773Z,102845.86
2019-03-29T01:21:37.755Z,102842.22
2019-03-29T01:24:08.198Z,102841.41
2019-03-29T01:26:38.703Z,102844.48
2019-03-29T01:29:09.179Z,102840.14
2019-03-29T01:31:40.228Z,102840.20
2019-03-29T01:34:11.475Z,102835.04
2019-03-29T01:36:41.810Z,102833.22
2019-03-29T01:39:12.612Z,102834.94
2019-03-29T01:41:43.526Z,102836.76
2019-03-29T01:44:15.387Z,102838.67
2019-03-29T01:46:45.925Z,102835.04
2019-03-29T01:49:16.450Z,102828.27
2019-03-29T01:51:46.967Z,102827.12
2019-03-29T01:54:17.804Z,102825.95
2019-03-29T01:56:48.243Z,102822.77
2019-03-29T01:59:18.766Z,102823.43
2019-03-29T02:01:49.228Z,102817.13
2019-03-29T02:04:20.318Z,102810.00
2019-03-29T02:06:51.202Z,102807.17
2019-03-29T02:09:22.696Z,102808.44
2019-03-29T02:11:53.430Z,102806.20
2019-03-29T02:14:23.894Z,102801.41
2019-03-29T02:16:55.844Z,102797.97
2019-03-29T02:19:26.624Z,102801.19
2019-03-29T02:21:57.318Z,102806.72
2019-03-29T02:24:27.891Z,102797.54
2019-03-29T02:26:58.285Z,102794.27
2019-03-29T02:29:29.099Z,102798.61
2019-03-29T02:32:00.626Z,102792.39
2019-03-29T02:34:31.150Z,102793.35
2019-03-29T02:37:02.305Z,102787.59
2019-03-29T02:39:33.083Z,102787.94
2019-03-29T02:42:03.594Z,102783.59
2019-03-29T02:44:35.021Z,102779.25
2019-03-29T02:47:06.877Z,102770.61
2019-03-29T02:49:37.474Z,102775.59
2019-03-29T02:52:07.935Z,102778.38
2019-03-29T02:54:38.530Z,102776.66
2019-03-29T02:57:09.344Z,102779.55
2019-03-29T02:59:39.874Z,102781.36
2019-03-29T03:02:10.374Z,102780.85
2019-03-29T03:04:40.866Z,102781.20
2019-03-29T03:07:11.401Z,102785.35
2019-03-29T03:09:42.343Z,102783.87
2019-03-29T03:12:12.941Z,102786.23
2019-03-29T03:14:43.459Z,102782.30
2019-03-29T03:17:13.961Z,102775.69
2019-03-29T03:19:44.681Z,102775.13
2019-03-29T03:22:15.108Z,102770.63
2019-03-29T03:24:45.658Z,102769.32
2019-03-29T03:27:16.170Z,102769.88
2019-03-29T03:29:48.488Z,102777.91
2019-03-29T03:32:19.084Z,102776.92
2019-03-29T03:34:50.001Z,102772.95
2019-03-29T03:37:20.636Z,102772.39
2019-03-29T03:39:51.176Z,102770.80
2019-03-29T03:42:22.423Z,102770.53
2019-03-29T03:44:54.018Z,102769.27
2019-03-29T03:47:24.475Z,102772.39
2019-03-29T03:49:55.063Z,102774.70
2019-03-29T03:52:25.733Z,102767.82
2019-03-29T03:54:56.706Z,102772.48
2019-03-29T03:57:27.761Z,102772.70
2019-03-29T04:00:00.031Z,102773.75
2019-03-29T04:02:30.577Z,102773.60
2019-03-29T04:05:00.989Z,102782.19
2019-03-29T04:07:31.551Z,102783.91
2019-03-29T04:10:02.115Z,102777.95
2019-03-29T04:12:32.789Z,102777.36
2019-03-29T04:15:03.325Z,102775.19
2019-03-29T04:17:33.942Z,102768.17
2019-03-29T04:20:04.766Z,102773.20
2019-03-29T04:22:35.367Z,102774.05
2019-03-29T04:25:06.580Z,102773.42
2019-03-29T04:27:37.432Z,102773.11
2019-03-29T04:30:08.144Z,102769.58
2019-03-29T04:32:39.469Z,102773.42
2019-03-29T04:35:10.172Z,102770.48
2019-03-29T04:37:40.615Z,102763.93
2019-03-29T04:40:11.473Z,102765.34
2019-03-29T04:42:41.869Z,102764.52
2019-03-29T04:45:12.442Z,102765.65
2019-03-29T04:47:42.918Z,102769.36
2019-03-29T04:50:14.197Z,102768.31
2019-03-29T04:52:44.706Z,102763.30
2019-03-29T04:55:15.368Z,102767.49
2019-03-29T04:57:45.955Z,102766.94
2019-03-29T05:00:17.701Z,102768.16
2019-03-29T05:02:48.700Z,102767.66
2019-03-29T05:05:19.628Z,102767.17
2019-03-29T05:07:50.418Z,102759.83
2019-03-29T05:10:22.022Z,102769.02
2019-03-29T05:12:52.649Z,102764.22
2019-03-29T05:15:23.215Z,102760.69
2019-03-29T05:17:54.441Z,102764.09
2019-03-29T05:20:25.368Z,102763.98
2019-03-29T05:22:56.475Z,102760.45
2019-03-29T05:25:27.086Z,102763.89
2019-03-29T05:27:57.860Z,102765.20
2019-03-29T05:30:28.573Z,102762.53
2019-03-29T05:32:59.090Z,102762.48
2019-03-29T05:35:29.630Z,102758.49
2019-03-29T05:38:00.443Z,102756.31
2019-03-29T05:40:35.078Z,102762.37
2019-03-29T05:43:03.593Z,102761.47
2019-03-29T05:45:34.100Z,102757.40
2019-03-29T05:48:04.617Z,102763.45
2019-03-29T05:50:36.820Z,102754.27
2019-03-29T05:53:07.576Z,102758.11
2019-03-29T05:55:38.109Z,102752.80
2019-03-29T05:58:08.844Z,102749.27
2019-03-29T06:00:39.645Z,102752.70
2019-03-29T06:03:10.450Z,102747.90
2019-03-29T06:05:41.689Z,102755.68
2019-03-29T06:08:12.156Z,102757.77
2019-03-29T06:10:48.799Z,102751.95
2019-03-29T06:13:15.166Z,102758.06
2019-03-29T06:15:45.669Z,102754.94
2019-03-29T06:18:16.623Z,102759.23
2019-03-29T06:20:48.037Z,102755.23
2019-03-29T06:23:18.801Z,102757.86
2019-03-29T06:25:49.812Z,102758.77
2019-03-29T06:28:20.650Z,102762.71
2019-03-29T06:30:51.186Z,102755.69
2019-03-29T06:33:21.591Z,102754.83
2019-03-29T06:35:54.083Z,102757.86
2019-03-29T06:38:26.460Z,102757.45
2019-03-29T06:41:02.931Z,102755.34
2019-03-29T06:43:29.183Z,102762.77
2019-03-29T06:45:59.926Z,102754.42
2019-03-29T06:48:30.425Z,102761.00
2019-03-29T06:51:01.241Z,102760.48
2019-03-29T06:53:31.636Z,102761.16
2019-03-29T06:56:02.134Z,102761.86
2019-03-29T06:58:32.940Z,102763.02
2019-03-29T07:01:03.401Z,102755.94
2019-03-29T07:03:33.878Z,102765.41
2019-03-29T07:06:04.401Z,102766.61
2019-03-29T07:08:35.284Z,102759.88
2019-03-29T07:11:16.511Z,102760.69
2019-03-29T07:13:38.217Z,102755.17
2019-03-29T07:16:08.761Z,102757.52
2019-03-29T07:18:39.271Z,102753.72
2019-03-29T07:21:20.879Z,102752.58
2019-03-29T07:23:42.913Z,102751.81
2019-03-29T07:26:13.428Z,102750.16
2019-03-29T07:28:44.099Z,102746.29
2019-03-29T07:31:14.622Z,102742.05
2019-03-29T07:33:45.114Z,102744.48
2019-03-29T07:36:15.741Z,102746.42
2019-03-29T07:38:46.250Z,102747.41
2019-03-29T07:41:30.745Z,102747.50
2019-03-29T07:43:48.916Z,102746.41
2019-03-29T07:46:19.584Z,102752.72
2019-03-29T07:48:50.743Z,102746.75
2019-03-29T07:51:21.264Z,102746.01
2019-03-29T07:53:51.688Z,102748.86
2019-03-29T07:56:22.202Z,102748.61
2019-03-29T07:58:52.629Z,102744.44
2019-03-29T08:01:23.151Z,102745.11
2019-03-29T08:03:53.601Z,102741.73
2019-03-29T08:06:24.552Z,102738.44
2019-03-29T08:08:55.063Z,102743.85
2019-03-29T08:11:27.643Z,102745.80
2019-03-29T08:13:58.930Z,102744.75
2019-03-29T08:16:29.522Z,102739.81
2019-03-29T08:19:00.312Z,102738.30
2019-03-29T08:21:31.080Z,102737.67
2019-03-29T08:24:01.578Z,102735.70
2019-03-29T08:26:32.548Z,102730.63
2019-03-29T08:29:03.231Z,102729.53
2019-03-29T08:31:33.736Z,102725.84
2019-03-29T08:34:04.569Z,102728.23
2019-03-29T08:36:35.389Z,102725.93
2019-03-29T08:39:10.110Z,102723.91
2019-03-29T08:41:39.280Z,102719.36
2019-03-29T08:44:11.853Z,102718.69
2019-03-29T08:46:43.393Z,102715.35
2019-03-29T08:49:16.841Z,102712.44
2019-03-29T08:51:47.009Z,102708.66
2019-03-29T08:54:17.492Z,102712.38
2019-03-29T08:56:47.978Z,102717.83
2019-03-29T08:59:18.434Z,102719.41
2019-03-29T09:01:50.119Z,102704.25
2019-03-29T09:04:21.827Z,102706.75
2019-03-29T09:06:54.143Z,102706.61
2019-03-29T09:09:24.842Z,102700.65
2019-03-29T09:11:55.407Z,102696.44
2019-03-29T09:14:26.191Z,102697.15
2019-03-29T09:16:56.636Z,102699.50
2019-03-29T09:19:28.721Z,102696.25
2019-03-29T09:21:59.243Z,102689.78
2019-03-29T09:24:29.648Z,102691.34
2019-03-29T09:27:00.501Z,102687.63
2019-03-29T09:29:31.019Z,102689.94
2019-03-29T09:32:01.835Z,102686.22
2019-03-29T09:34:33.344Z,102682.88
2019-03-29T09:37:03.943Z,102685.19
2019-03-29T09:39:34.461Z,102684.11
2019-03-29T09:42:04.974Z,102676.02
2019-03-29T09:44:35.800Z,102674.44
2019-03-29T09:47:06.627Z,102662.70
2019-03-29T09:49:37.108Z,102662.78
2019-03-29T09:52:08.105Z,102664.14
2019-03-29T09:54:39.361Z,102662.98
2019-03-29T09:57:14.893Z,102659.16
2019-03-29T09:59:42.220Z,102656.05
2019-03-29T10:02:12.754Z,102644.95
2019-03-29T10:04:43.265Z,102643.77
2019-03-29T10:07:13.741Z,102635.48
2019-03-29T10:09:44.340Z,102639.97
2019-03-29T10:12:14.923Z,102633.41
2019-03-29T10:14:45.846Z,102627.76
2019-03-29T10:17:16.390Z,102622.53
2019-03-29T10:19:49.692Z,102622.98
2019-03-29T10:22:19.464Z,102620.03
2019-03-29T10:24:49.817Z,102612.42
2019-03-29T10:27:20.807Z,102607.55
2019-03-29T10:29:51.560Z,102601.98
2019-03-29T10:32:22.156Z,102599.16
2019-03-29T10:34:52.642Z,102593.66
2019-03-29T10:37:23.326Z,102587.95
2019-03-29T10:39:54.210Z,102586.58
2019-03-29T10:42:24.926Z,102589.00
2019-03-29T10:44:56.004Z,102581.46
2019-03-29T10:47:42.359Z,102583.23
2019-03-29T10:49:59.477Z,102578.33
2019-03-29T10:52:30.268Z,102575.22
2019-03-29T10:55:02.062Z,102575.98
2019-03-29T10:57:32.548Z,102565.53
2019-03-29T11:00:03.417Z,102562.30
2019-03-29T11:02:34.550Z,102564.49
2019-03-29T11:05:05.343Z,102557.93
2019-03-29T11:07:36.462Z,102546.41
2019-03-29T11:10:07.078Z,102546.41
2019-03-29T11:12:37.623Z,102543.95
2019-03-29T11:15:08.454Z,102528.70
2019-03-29T11:17:38.985Z,102531.08
2019-03-29T11:20:09.522Z,102530.43
2019-03-29T11:22:39.985Z,102527.19
2019-03-29T11:25:10.563Z,102529.41
2019-03-29T11:27:41.068Z,102523.52
2019-03-29T11:30:11.651Z,102519.22
2019-03-29T11:32:42.063Z,102509.45
2019-03-29T11:35:12.548Z,102505.81
2019-03-29T11:37:43.079Z,102512.16
2019-03-29T11:40:13.853Z,102502.51
2019-03-29T11:42:44.795Z,102496.47
2019-03-29T11:45:15.354Z,102490.53
2019-03-29T11:47:46.248Z,102481.53
2019-03-29T11:50:17.115Z,102478.48
2019-03-29T11:52:48.919Z,102465.38
2019-03-29T11:55:19.516Z,102464.77
2019-03-29T11:57:50.035Z,102460.04
2019-03-29T12:00:33.998Z,102458.82
2019-03-29T12:03:09.374Z,102456.53
2019-03-29T12:05:40.624Z,102451.21
2019-03-29T12:08:11.116Z,102464.59
2019-03-29T12:10:42.009Z,102452.92
2019-03-29T12:13:13.048Z,102446.36
2019-03-29T12:15:43.666Z,102442.38
2019-03-29T12:18:14.674Z,102442.72
2019-03-29T12:20:46.396Z,102442.95
2019-03-29T12:23:17.291Z,102437.83
2019-03-29T12:25:47.844Z,102439.24
2019-03-29T12:28:18.425Z,102430.16
2019-03-29T12:30:48.912Z,102434.27
2019-03-29T12:33:19.828Z,102426.94
2019-03-29T12:35:50.291Z,102416.63
2019-03-29T12:38:21.019Z,102416.14
2019-03-29T12:40:51.926Z,102415.81
2019-03-29T12:43:22.480Z,102402.78
2019-03-29T12:45:53.095Z,102402.78
2019-03-29T12:48:25.698Z,102383.30
2019-03-29T12:50:57.822Z,102389.36
2019-03-29T12:53:28.319Z,102389.36
2019-03-29T12:55:58.987Z,102389.10
2019-03-29T12:58:30.299Z,102374.80
2019-03-29T13:01:01.269Z,102377.05
2019-03-29T13:03:32.021Z,102373.16
2019-03-29T13:06:02.578Z,102371.33
2019-03-29T13:08:33.044Z,102368.30
2019-03-29T13:11:05.010Z,102360.95
2019-03-29T13:13:35.642Z,102358.20
2019-03-29T13:16:06.338Z,102347.41
2019-03-29T13:18:38.019Z,102347.48
2019-03-29T13:21:08.879Z,102342.34
2019-03-29T13:23:41.271Z,102328.87
2019-03-29T13:26:11.694Z,102329.58
2019-03-29T13:28:42.232Z,102338.02
2019-03-29T13:31:14.247Z,102325.41
2019-03-29T13:33:44.887Z,102322.00
2019-03-29T13:36:15.480Z,102318.09
2019-03-29T13:38:47.703Z,102309.13
2019-03-29T13:41:18.151Z,102306.58
2019-03-29T13:43:49.093Z,102304.48
2019-03-29T13:46:19.638Z,102302.56
2019-03-29T13:48:50.155Z,102306.03
2019-03-29T13:51:20.865Z,102299.88
2019-03-29T13:53:51.336Z,102291.97
2019-03-29T13:56:22.485Z,102280.55
2019-03-29T13:58:52.933Z,102279.03
2019-03-29T14:01:23.808Z,102280.63
2019-03-29T14:03:54.248Z,102270.51
2019-03-29T14:06:24.830Z,102271.09
2019-03-29T14:08:55.446Z,102263.48
2019-03-29T14:11:26.432Z,102262.58
2019-03-29T14:13:57.046Z,102252.89
2019-03-29T14:16:27.565Z,102244.78
2019-03-29T14:18:58.065Z,102247.30
2019-03-29T14:21:28.603Z,102239.64
2019-03-29T14:23:59.086Z,102235.47
2019-03-29T14:26:29.824Z,102241.67
2019-03-29T14:29:00.697Z,102234.71
2019-03-29T14:31:31.101Z,102228.73
2019-03-29T14:34:01.971Z,102225.28
2019-03-29T14:36:32.444Z,102222.98
2019-03-29T14:39:02.950Z,102217.52
2019-03-29T14:41:34.221Z,102221.98
2019-03-29T14:44:04.646Z,102221.25
2019-03-29T14:46:35.387Z,102212.13
2019-03-29T14:49:05.890Z,102193.56
2019-03-29T14:51:36.760Z,102193.56
2019-03-29T14:54:07.228Z,102199.88
2019-03-29T14:56:38.018Z,102193.52
2019-03-29T14:59:08.635Z,102195.05
2019-03-29T15:01:39.027Z,102191.95
2019-03-29T15:04:09.424Z,102184.46
2019-03-29T15:06:40.169Z,102188.09
2019-03-29T15:09:10.682Z,102177.53
2019-03-29T15:11:41.126Z,102168.59
2019-03-29T15:14:11.603Z,102175.31
2019-03-29T15:16:42.332Z,102167.53
2019-03-29T15:19:12.734Z,102173.38
2019-03-29T15:21:43.222Z,102168.16
2019-03-29T15:24:13.738Z,102159.00
2019-03-29T15:26:44.226Z,102165.67
2019-03-29T15:29:14.563Z,102152.52
2019-03-29T15:31:45.035Z,102153.43
2019-03-29T15:34:15.435Z,102152.77
2019-03-29T15:36:45.948Z,102145.16
2019-03-29T15:39:16.588Z,102137.20
2019-03-29T15:41:47.123Z,102133.79
2019-03-29T15:44:18.700Z,102136.95
2019-03-29T15:46:49.205Z,102133.77
2019-03-29T15:49:19.697Z,102133.11
2019-03-29T15:51:50.104Z,102127.87
2019-03-29T15:54:20.579Z,102128.34
2019-03-29T15:56:50.967Z,102123.34
2019-03-29T15:59:21.340Z,102121.02
2019-03-29T16:01:51.849Z,102116.25
2019-03-29T16:04:22.240Z,102115.62
2019-03-29T16:06:52.712Z,102106.39
2019-03-29T16:09:23.112Z,102104.70
2019-03-29T16:11:53.782Z,102104.21
2019-03-29T16:14:24.178Z,102107.41
2019-03-29T16:16:54.642Z,102091.41
2019-03-29T16:19:25.111Z,102096.27
2019-03-29T16:21:55.420Z,102094.58
2019-03-29T16:24:27.232Z,102081.83
2019-03-29T16:26:57.963Z,102088.89
2019-03-29T16:29:28.301Z,102082.68
2019-03-29T16:31:58.677Z,102083.17
2019-03-29T16:34:29.157Z,102080.30
2019-03-29T16:36:59.544Z,102078.11
2019-03-29T16:39:30.327Z,102088.16
2019-03-29T16:42:00.734Z,102086.62
2019-03-29T16:44:31.484Z,102082.02
2019-03-29T16:47:01.978Z,102082.67
2019-03-29T16:49:33.134Z,102082.02
2019-03-29T16:52:03.867Z,102075.95
2019-03-29T16:54:34.897Z,102077.99
2019-03-29T16:57:05.843Z,102076.02
2019-03-29T16:59:36.226Z,102075.98
2019-03-29T17:02:06.883Z,102073.11
2019-03-29T17:04:37.756Z,102070.52
2019-03-29T17:07:08.318Z,102076.77
2019-03-29T17:09:39.132Z,102074.23
2019-03-29T17:12:09.841Z,102071.70
2019-03-29T17:14:40.506Z,102073.02
2019-03-29T17:17:10.814Z,102077.76
2019-03-29T17:19:41.430Z,102080.41
2019-03-29T17:22:12.160Z,102076.80
2019-03-29T17:24:56.366Z,102075.61
2019-03-29T17:27:15.312Z,102075.22
2019-03-29T17:29:46.105Z,102075.22
2019-03-29T17:32:16.921Z,102075.06
2019-03-29T17:34:47.713Z,102073.91
2019-03-29T17:37:18.226Z,102055.02
2019-03-29T17:39:49.096Z,102072.48
2019-03-29T17:42:19.468Z,102068.64
2019-03-29T17:44:49.866Z,102070.77
2019-03-29T17:47:20.236Z,102076.67
2019-03-29T17:49:50.840Z,102069.83
2019-03-29T17:52:21.166Z,102069.00
2019-03-29T17:54:51.659Z,102066.66
2019-03-29T17:57:22.045Z,102067.30
2019-03-29T17:59:52.455Z,102064.95
2019-03-29T18:02:23.006Z,102064.95
2019-03-29T18:04:54.015Z,102066.69
2019-03-29T18:07:24.598Z,102076.38
2019-03-29T18:09:55.074Z,102077.66
2019-03-29T18:12:25.467Z,102077.16
2019-03-29T18:14:55.804Z,102085.36
2019-03-29T18:17:26.456Z,102091.61
2019-03-29T18:19:57.083Z,102094.12
2019-03-29T18:22:28.437Z,102092.74
2019-03-29T18:24:58.906Z,102093.28
2019-03-29T18:27:30.548Z,102088.86
2019-03-29T18:30:01.348Z,102088.28
2019-03-29T18:32:33.012Z,102092.59
2019-03-29T18:35:03.492Z,102090.36
2019-03-29T18:37:34.896Z,102089.55
2019-03-29T18:40:05.998Z,102093.31
2019-03-29T18:42:36.454Z,102090.55
2019-03-29T18:45:07.509Z,102088.73
2019-03-29T18:47:37.939Z,102097.70
2019-03-29T18:50:08.596Z,102098.17
2019-03-29T18:52:38.966Z,102097.08
2019-03-29T18:55:09.444Z,102092.84
2019-03-29T18:57:39.842Z,102094.66
2019-03-29T19:00:10.648Z,102091.88
2019-03-29T19:02:41.113Z,102095.14
2019-03-29T19:05:18.708Z,102101.80
2019-03-29T19:07:49.100Z,102099.62
2019-03-29T19:10:19.582Z,102100.23
2019-03-29T19:12:50.375Z,102096.60
2019-03-29T19:15:22.190Z,102095.67
2019-03-29T19:17:52.863Z,102098.47
2019-03-29T19:20:27.907Z,102094.77
2019-03-29T19:22:55.524Z,102095.73
2019-03-29T19:25:25.993Z,102104.94
2019-03-29T19:27:56.633Z,102102.31
2019-03-29T19:30:27.198Z,102098.69
2019-03-29T19:32:57.589Z,102100.50
2019-03-29T19:35:28.415Z,102103.07
2019-03-29T19:37:58.790Z,102104.88
2019-03-29T19:40:29.189Z,102104.39
2019-03-29T19:42:59.647Z,102098.73
2019-03-29T19:45:34.037Z,102101.75
2019-03-29T19:48:02.803Z,102099.81
2019-03-29T19:50:33.295Z,102099.23
2019-03-29T19:53:03.926Z,102098.86
2019-03-29T19:55:35.042Z,102091.99
2019-03-29T19:58:05.873Z,102095.45
2019-03-29T20:00:41.234Z,102091.81
2019-03-29T20:03:11.676Z,102087.59
2019-03-29T20:05:42.146Z,102089.99
2019-03-29T20:08:12.865Z,102090.97
2019-03-29T20:10:43.248Z,102087.67
2019-03-29T20:13:13.723Z,102089.23
2019-03-29T20:15:44.185Z,102085.99
2019-03-29T20:18:14.969Z,102089.84
2019-03-29T20:20:45.429Z,102085.95
2019-03-29T20:23:16.143Z,102083.91
2019-03-29T20:25:46.872Z,102082.81
2019-03-29T20:28:17.755Z,102087.26
2019-03-29T20:30:48.246Z,102079.41
2019-03-29T20:33:18.641Z,102077.94
2019-03-29T20:35:49.502Z,102078.75
2019-03-29T20:38:20.130Z,102081.16
2019-03-29T20:40:50.549Z,102079.06
2019-03-29T20:43:21.291Z,102075.55
2019-03-29T20:45:52.038Z,102077.33
2019-03-29T20:48:22.503Z,102077.98
2019-03-29T20:50:53.006Z,102075.66
2019-03-29T20:53:23.688Z,102070.42
2019-03-29T20:55:54.294Z,102072.38
2019-03-29T20:58:24.755Z,102068.24
2019-03-29T21:00:55.295Z,102072.81
2019-03-29T21:03:25.844Z,102065.28
2019-03-29T21:05:56.688Z,102068.77
2019-03-29T21:08:27.079Z,102070.91
2019-03-29T21:10:57.602Z,102065.55
2019-03-29T21:13:28.282Z,102064.58
2019-03-29T21:15:58.730Z,102061.98
2019-03-29T21:18:29.198Z,102058.20
2019-03-29T21:20:59.943Z,102060.33
2019-03-29T21:23:31.296Z,102054.59
2019-03-29T21:26:01.788Z,102056.55
2019-03-29T21:28:34.893Z,102050.34
2019-03-29T21:31:04.339Z,102051.71
2019-03-29T21:33:34.810Z,102054.23
2019-03-29T21:36:05.413Z,102053.91
2019-03-29T21:38:35.821Z,102051.36
2019-03-29T21:41:06.593Z,102044.98
2019-03-29T21:43:37.357Z,102053.03
2019-03-29T21:46:07.822Z,102052.39
2019-03-29T21:48:38.124Z,102044.38
2019-03-29T21:51:08.502Z,102044.38
2019-03-29T21:53:38.894Z,102044.38
2019-03-29T21:56:09.844Z,102045.80
2019-03-29T21:58:40.336Z,102046.28
2019-03-29T22:01:10.902Z,102049.14
2019-03-29T22:03:41.360Z,102050.09
2019-03-29T22:06:11.833Z,102048.66
2019-03-29T22:08:42.209Z,102046.38
2019-03-29T22:11:12.623Z,102044.11
2019-03-29T22:13:43.496Z,102044.95
2019-03-29T22:16:14.350Z,102045.27
2019-03-29T22:18:44.811Z,102044.28
2019-03-29T22:21:15.282Z,102041.53
2019-03-29T22:23:45.659Z,102039.05
2019-03-29T22:26:16.051Z,102039.25
2019-03-29T22:28:46.422Z,102038.68
2019-03-29T22:31:16.952Z,102040.65
2019-03-29T22:33:47.611Z,102042.34
2019-03-29T22:36:18.113Z,102042.34
2019-03-29T22:38:48.792Z,102033.89
2019-03-29T22:41:19.185Z,102033.55
2019-03-29T22:43:49.692Z,102031.62
2019-03-29T22:46:20.104Z,102031.62
2019-03-29T22:48:52.933Z,102027.78
2019-03-29T22:51:22.812Z,102022.34
2019-03-29T22:53:53.587Z,102020.81
2019-03-29T22:56:24.743Z,102023.19
2019-03-29T22:58:55.213Z,102019.69
2019-03-29T23:01:26.509Z,102020.53
2019-03-29T23:03:56.967Z,102017.31
2019-03-29T23:06:27.400Z,102020.91
2019-03-29T23:08:57.782Z,102018.09
2019-03-29T23:11:28.433Z,102020.05
2019-03-29T23:13:58.901Z,102013.51
2019-03-29T23:16:30.449Z,102017.73
2019-03-29T23:19:06.899Z,102024.69
2019-03-29T23:21:33.513Z,102020.44
2019-03-29T23:24:03.998Z,102007.78
2019-03-29T23:26:34.393Z,102002.41
2019-03-29T23:29:05.201Z,101998.82
2019-03-29T23:31:35.839Z,102004.95
2019-03-29T23:34:06.288Z,101994.75
2019-03-29T23:36:36.824Z,101998.53
2019-03-29T23:39:07.565Z,101994.66
2019-03-29T23:41:38.259Z,101989.27
2019-03-29T23:44:08.741Z,101990.89
2019-03-29T23:46:39.413Z,101993.58
2019-03-29T23:49:21.081Z,101993.21
2019-03-29T23:51:42.531Z,101987.92
2019-03-29T23:54:13.266Z,101989.16
2019-03-29T23:56:43.728Z,101992.55
2019-03-29T23:59:14.169Z,101986.89
